Time;durP1;ratioP1;P1;durP2;ratioP2;P2;SDS_P1;SDS_P2;PMS_P1;PMS_P2;Temp;Humidity;BMP_temperature;BMP_pressure;BME280_temperature;BME280_humidity;BME280_pressure;Samples;Min_cycle;Max_cycle;Signal;HPM_P1;HPM_P2
2023/03/15 00:02:12;;;;;;;5.95;2.00;;;;;;;6.30;37.99;100791.16;5013888;28;20398;-80
2023/03/15 00:04:40;;;;;;;4.38;2.08;;;;;;;6.29;38.13;100795.72;5022337;28;20160;-79
2023/03/15 00:07:09;;;;;;;5.18;1.83;;;;;;;6.31;38.13;100791.03;5017062;28;20054;-79
2023/03/15 00:09:37;;;;;;;4.38;2.30;;;;;;;6.28;38.36;100791.25;5021309;28;20060;-79
2023/03/15 00:12:06;;;;;;;5.43;2.10;;;;;;;6.29;38.27;100797.56;5018819;28;20057;-79
2023/03/15 00:14:36;;;;;;;6.22;2.38;;;;;;;6.28;38.44;100806.72;5008663;28;20041;-80
2023/03/15 00:17:04;;;;;;;6.10;2.35;;;;;;;6.27;38.51;100810.41;5019236;28;20094;-80
2023/03/15 00:19:32;;;;;;;7.65;2.80;;;;;;;6.25;38.49;100817.78;5015601;28;20049;-80
2023/03/15 00:22:12;;;;;;;6.93;2.75;;;;;;;6.27;38.71;100821.28;5009637;28;20049;-80
2023/03/15 00:24:39;;;;;;;4.88;2.33;;;;;;;6.22;39.05;100818.00;5013321;28;20092;-80
2023/03/15 00:27:08;;;;;;;5.32;2.20;;;;;;;6.22;38.72;100824.31;5013364;28;20045;-80
2023/03/15 00:29:36;;;;;;;6.22;2.35;;;;;;;6.20;38.96;100834.41;5037941;28;20041;-79
2023/03/15 00:32:04;;;;;;;5.55;2.40;;;;;;;6.18;39.23;100827.34;5030714;28;20056;-79
2023/03/15 00:34:32;;;;;;;5.40;2.40;;;;;;;6.17;39.65;100826.47;5023444;28;20053;-79
2023/03/15 00:37:01;;;;;;;6.05;2.95;;;;;;;6.16;39.53;100832.00;5023797;28;20083;-78
2023/03/15 00:39:30;;;;;;;5.57;2.40;;;;;;;6.16;39.69;100837.44;5022744;28;20034;-79
2023/03/15 00:41:58;;;;;;;4.60;2.15;;;;;;;6.15;39.76;100849.28;5020488;28;20100;-79
2023/03/15 00:44:26;;;;;;;5.68;2.67;;;;;;;6.14;39.79;100850.25;5020738;28;20041;-80
2023/03/15 00:46:54;;;;;;;5.28;2.33;;;;;;;6.13;39.98;100845.81;5013624;28;20096;-80
2023/03/15 00:49:22;;;;;;;4.97;2.55;;;;;;;6.11;40.17;100842.34;5014904;28;20046;-80
2023/03/15 00:51:50;;;;;;;6.63;2.63;;;;;;;6.09;40.53;100841.56;5016230;28;20064;-81
2023/03/15 00:54:18;;;;;;;5.85;2.92;;;;;;;6.07;40.15;100836.25;5017500;28;20517;-79
2023/03/15 00:56:48;;;;;;;8.80;3.40;;;;;;;6.07;40.72;100842.53;5021480;23;20038;-81
2023/03/15 00:59:16;;;;;;;6.47;2.60;;;;;;;6.05;40.81;100838.19;4990705;28;20042;-81
2023/03/15 01:01:44;;;;;;;5.50;2.75;;;;;;;6.05;41.01;100839.06;4999862;28;20042;-81
2023/03/15 01:04:12;;;;;;;5.70;2.95;;;;;;;6.04;40.85;100834.59;4990404;28;20636;-81
2023/03/15 01:06:41;;;;;;;6.50;2.70;;;;;;;6.05;41.26;100843.63;4999381;28;20081;-81
2023/03/15 01:09:09;;;;;;;5.68;2.75;;;;;;;6.03;41.37;100837.44;4991632;28;20594;-80
2023/03/15 01:11:38;;;;;;;7.65;3.10;;;;;;;6.04;41.46;100837.31;4986424;28;20150;-80
2023/03/15 01:14:09;;;;;;;5.38;2.65;;;;;;;6.07;41.68;100838.97;5025786;23;20062;-78
2023/03/15 01:16:37;;;;;;;5.85;3.00;;;;;;;6.06;41.58;100846.25;5013037;28;20046;-78
2023/03/15 01:19:05;;;;;;;5.65;3.00;;;;;;;6.07;41.67;100842.53;5012364;28;20054;-79
2023/03/15 01:21:33;;;;;;;6.63;3.08;;;;;;;6.09;41.76;100844.28;5012419;28;20414;-79
2023/03/15 01:24:01;;;;;;;5.50;3.00;;;;;;;6.10;42.15;100849.63;5024166;28;20037;-79
2023/03/15 01:26:29;;;;;;;5.38;3.22;;;;;;;6.11;42.09;100854.09;5029984;28;20107;-79
2023/03/15 01:28:57;;;;;;;5.53;3.00;;;;;;;6.12;42.03;100854.97;5021453;28;20054;-79
2023/03/15 01:31:29;;;;;;;5.80;3.22;;;;;;;6.14;42.48;100855.69;5031137;28;20046;-79
2023/03/15 01:33:58;;;;;;;6.63;3.20;;;;;;;6.13;42.38;100848.53;5031709;28;20113;-78
2023/03/15 01:36:29;;;;;;;5.53;3.00;;;;;;;6.14;42.38;100858.41;5028865;28;20042;-80
2023/03/15 01:38:57;;;;;;;7.75;3.53;;;;;;;6.14;42.51;100859.28;5030356;28;20487;-79
2023/03/15 01:41:30;;;;;;;5.72;3.03;;;;;;;6.14;42.14;100862.00;5026276;28;20121;-79
2023/03/15 01:43:58;;;;;;;6.65;3.22;;;;;;;6.16;42.49;100861.91;5028663;28;20050;-79
2023/03/15 01:46:32;;;;;;;6.40;3.22;;;;;;;6.18;42.40;100866.28;5034414;28;20056;-79
2023/03/15 01:49:17;;;;;;;5.97;3.20;;;;;;;6.16;42.31;100864.63;5034477;28;20119;-79
2023/03/15 01:51:50;;;;;;;7.32;3.38;;;;;;;6.17;42.38;100869.97;5031007;28;20056;-78
2023/03/15 01:54:22;;;;;;;6.47;3.55;;;;;;;6.16;42.34;100870.06;5040201;28;20042;-79
2023/03/15 01:56:54;;;;;;;6.60;3.10;;;;;;;6.15;42.09;100861.03;5034767;28;20046;-79
2023/03/15 01:59:27;;;;;;;5.60;3.08;;;;;;;6.16;42.02;100862.78;5035845;28;20056;-78
2023/03/15 02:01:56;;;;;;;6.60;3.20;;;;;;;6.14;42.11;100872.88;5034631;28;20046;-80
2023/03/15 02:04:28;;;;;;;8.35;3.42;;;;;;;6.13;42.19;100865.69;5036431;28;20072;-79
2023/03/15 02:07:00;;;;;;;6.40;3.40;;;;;;;6.14;42.31;100872.00;5027617;28;20058;-79
2023/03/15 02:09:40;;;;;;;7.53;3.70;;;;;;;6.14;42.88;100872.88;5025905;28;20499;-79
2023/03/15 02:12:09;;;;;;;5.80;3.10;;;;;;;6.12;42.19;100868.53;5031197;28;20056;-79
2023/03/15 02:14:38;;;;;;;9.10;3.60;;;;;;;6.12;42.41;100865.84;5026954;28;20033;-78
2023/03/15 02:17:09;;;;;;;6.18;3.50;;;;;;;6.09;42.33;100860.59;5027255;28;20408;-79
2023/03/15 02:19:48;;;;;;;5.00;2.78;;;;;;;6.11;42.47;100867.69;5028972;28;20046;-78
2023/03/15 02:22:27;;;;;;;7.00;3.50;;;;;;;6.09;42.58;100866.91;5029440;28;20069;-80
2023/03/15 02:25:00;;;;;;;5.18;3.08;;;;;;;6.04;42.18;100866.31;5029756;28;20061;-78
2023/03/15 02:27:33;;;;;;;4.03;2.13;;;;;;;6.02;42.32;100862.88;5017626;28;20132;-79
2023/03/15 02:30:02;;;;;;;5.10;2.20;;;;;;;5.99;42.02;100869.38;5019113;28;20055;-79
2023/03/15 02:32:31;;;;;;;3.58;2.00;;;;;;;5.97;41.78;100862.28;5028945;28;21364;-80
2023/03/15 02:34:59;;;;;;;4.35;1.98;;;;;;;5.94;41.83;100871.53;5019595;28;20052;-78
2023/03/15 02:37:27;;;;;;;3.40;2.00;;;;;;;5.89;41.86;100876.41;5022742;28;20057;-79
2023/03/15 02:39:55;;;;;;;3.22;1.75;;;;;;;5.86;42.09;100878.47;5029644;28;20044;-78
2023/03/15 02:42:23;;;;;;;4.38;2.10;;;;;;;5.83;42.01;100886.81;5024353;28;20389;-79
2023/03/15 02:44:54;;;;;;;4.95;1.92;;;;;;;5.79;42.11;100888.84;5014764;28;20124;-79
2023/03/15 02:47:26;;;;;;;3.63;2.10;;;;;;;5.78;42.43;100887.13;5021595;28;20123;-81
2023/03/15 02:49:54;;;;;;;2.97;2.00;;;;;;;5.72;42.28;100894.81;5028551;28;20053;-79
2023/03/15 02:52:23;;;;;;;3.60;2.22;;;;;;;5.73;42.41;100893.84;5024022;28;20038;-80
2023/03/15 02:54:51;;;;;;;3.35;1.98;;;;;;;5.70;42.28;100896.78;5048384;28;20068;-79
2023/03/15 02:57:19;;;;;;;3.50;2.30;;;;;;;5.68;42.35;100903.16;5030421;28;20057;-79
2023/03/15 02:59:49;;;;;;;4.13;2.13;;;;;;;5.67;42.70;100896.00;5032145;28;20501;-79
2023/03/15 03:02:19;;;;;;;4.30;1.98;;;;;;;5.68;42.92;100899.59;5029179;28;20068;-79
2023/03/15 03:04:47;;;;;;;3.40;2.03;;;;;;;5.68;42.88;100908.59;5025519;28;20045;-79
2023/03/15 03:07:18;;;;;;;3.80;2.20;;;;;;;5.67;42.89;100905.97;5029044;28;20083;-79
2023/03/15 03:09:50;;;;;;;4.18;2.20;;;;;;;5.66;43.12;100906.94;5020842;28;20045;-79
2023/03/15 03:12:20;;;;;;;3.20;2.00;;;;;;;5.68;43.02;100915.88;5027067;28;20065;-78
2023/03/15 03:14:48;;;;;;;3.53;2.10;;;;;;;5.69;42.91;100909.47;5027318;28;20072;-79
2023/03/15 03:17:20;;;;;;;4.20;2.10;;;;;;;5.70;43.17;100905.78;5014573;28;20056;-78
2023/03/15 03:19:48;;;;;;;4.20;2.20;;;;;;;5.71;43.07;100912.94;5031618;28;20050;-79
2023/03/15 03:22:23;;;;;;;4.60;2.03;;;;;;;5.71;43.00;100922.97;5033279;28;20045;-78
2023/03/15 03:24:51;;;;;;;3.47;2.00;;;;;;;5.71;42.93;100925.66;5025415;28;20342;-79
2023/03/15 03:27:20;;;;;;;4.55;2.13;;;;;;;5.72;42.79;100932.81;5026131;28;20073;-79
2023/03/15 03:29:49;;;;;;;4.25;2.20;;;;;;;5.70;42.93;100927.50;5033563;28;20105;-79
2023/03/15 03:32:17;;;;;;;4.22;2.28;;;;;;;5.70;42.86;100929.34;5031221;28;20046;-79
2023/03/15 03:34:47;;;;;;;3.72;2.10;;;;;;;5.72;43.09;100938.25;5027406;28;20092;-79
2023/03/15 03:37:17;;;;;;;3.30;2.20;;;;;;;5.71;43.16;100937.38;5025079;28;20045;-78
2023/03/15 03:39:57;;;;;;;3.20;2.00;;;;;;;5.69;43.00;100936.63;5031136;28;20049;-79
2023/03/15 03:42:25;;;;;;;3.38;1.92;;;;;;;5.68;42.98;100946.63;5031678;28;20132;-79
2023/03/15 03:44:53;;;;;;;3.05;2.08;;;;;;;5.67;42.72;100954.84;5032633;28;20407;-79
2023/03/15 03:47:22;;;;;;;3.45;2.33;;;;;;;5.67;42.82;100954.84;5031699;28;20041;-79
2023/03/15 03:49:53;;;;;;;3.95;2.30;;;;;;;5.66;42.90;100953.97;5028512;28;20069;-80
2023/03/15 03:52:21;;;;;;;3.72;2.25;;;;;;;5.64;42.74;100961.34;5029911;28;20136;-79
2023/03/15 03:54:51;;;;;;;3.35;2.20;;;;;;;5.62;42.83;100960.56;5034758;28;20580;-79
2023/03/15 03:57:19;;;;;;;2.67;2.10;;;;;;;5.61;43.05;100963.41;5024879;28;20402;-80
2023/03/15 03:59:48;;;;;;;4.05;2.35;;;;;;;5.59;42.77;100968.94;5025125;28;20053;-80
2023/03/15 04:02:16;;;;;;;3.33;2.40;;;;;;;5.58;42.86;100971.75;5026392;28;20057;-79
2023/03/15 04:04:53;;;;;;;3.70;2.50;;;;;;;5.55;42.89;100972.81;5032101;28;20049;-79
2023/03/15 04:07:21;;;;;;;4.82;2.83;;;;;;;5.54;43.04;100973.78;5031173;28;20360;-79
2023/03/15 04:09:49;;;;;;;4.28;2.80;;;;;;;5.52;42.94;100983.88;5029781;28;20041;-79
2023/03/15 04:12:18;;;;;;;3.90;2.90;;;;;;;5.50;42.98;100982.22;5026546;28;20054;-80
2023/03/15 04:14:46;;;;;;;4.15;2.92;;;;;;;5.49;43.22;100989.50;5031179;28;20042;-79
2023/03/15 04:17:16;;;;;;;4.75;2.67;;;;;;;5.47;43.23;100988.72;5030729;28;20037;-80
2023/03/15 04:19:45;;;;;;;5.10;3.03;;;;;;;5.47;43.31;100998.69;5036075;28;20053;-80
2023/03/15 04:22:16;;;;;;;4.07;2.90;;;;;;;5.45;43.39;100989.81;5030827;28;20141;-80
2023/03/15 04:25:25;;;;;;;4.53;3.08;;;;;;;5.43;43.29;101002.59;5010848;28;20054;-78
2023/03/15 04:28:04;;;;;;;3.95;2.80;;;;;;;5.42;43.24;101009.00;5010654;28;20552;-78
2023/03/15 04:30:44;;;;;;;4.68;3.20;;;;;;;5.40;43.50;101009.09;5023200;28;20045;-79
2023/03/15 04:33:28;;;;;;;4.20;2.90;;;;;;;5.40;43.34;101010.91;5030538;28;20038;-79
2023/03/15 04:36:22;;;;;;;4.00;2.95;;;;;;;5.36;43.75;101002.13;5016555;28;20037;-80
2023/03/15 04:39:11;;;;;;;3.75;2.88;;;;;;;5.37;43.52;101008.44;5026484;28;20042;-80
2023/03/15 04:41:55;;;;;;;5.05;3.17;;;;;;;5.33;43.86;101007.72;5023190;28;20090;-79
2023/03/15 04:44:49;;;;;;;4.80;3.10;;;;;;;5.33;43.67;101004.16;5018685;28;20053;-78
2023/03/15 04:47:37;;;;;;;4.05;3.10;;;;;;;5.32;43.83;101003.28;5028796;28;20056;-80
2023/03/15 04:50:24;;;;;;;4.80;3.13;;;;;;;5.33;44.00;101012.28;5027041;28;20088;-79
2023/03/15 04:52:59;;;;;;;4.60;3.15;;;;;;;5.33;44.00;101017.72;5027460;28;20136;-78
2023/03/15 04:55:47;;;;;;;5.18;3.53;;;;;;;5.33;44.23;101024.03;5035472;28;20060;-80
2023/03/15 04:58:40;;;;;;;4.72;2.97;;;;;;;5.30;43.99;101032.34;5031696;28;20120;-79
2023/03/15 05:01:25;;;;;;;;;;;;;;;5.09;45.08;101031.81;5029387;28;20057;-78
2023/03/15 05:04:05;;;;;;;4.65;3.13;;;;;;;5.26;44.17;101028.09;5026809;28;19928;-78
2023/03/15 05:06:51;;;;;;;4.32;2.67;;;;;;;5.29;43.78;101030.63;5033134;28;20758;-78
2023/03/15 05:09:37;;;;;;;4.18;2.88;;;;;;;5.29;43.99;101038.75;5017025;28;20080;-78
2023/03/15 05:12:28;;;;;;;3.83;2.75;;;;;;;5.29;44.27;101036.06;5010839;28;20049;-79
2023/03/15 05:15:14;;;;;;;4.18;2.92;;;;;;;5.25;44.17;101046.22;5030283;28;20049;-79
2023/03/15 05:18:05;;;;;;;4.20;2.70;;;;;;;5.23;44.00;101047.25;5027437;28;20046;-78
2023/03/15 05:21:04;;;;;;;4.07;2.78;;;;;;;5.21;43.89;101050.06;5055689;28;20060;-78
2023/03/15 05:24:00;;;;;;;4.43;3.00;;;;;;;5.19;43.94;101054.75;5035942;28;20091;-78
2023/03/15 05:26:36;;;;;;;4.47;3.10;;;;;;;5.18;44.08;101055.72;5029703;28;20049;-79
2023/03/15 05:29:24;;;;;;;4.88;3.53;;;;;;;5.16;44.13;101063.03;5027537;28;20045;-80
2023/03/15 05:31:55;;;;;;;5.18;3.50;;;;;;;5.14;44.23;101066.78;5033377;28;20112;-78
2023/03/15 05:34:41;;;;;;;4.75;3.22;;;;;;;5.12;44.18;101072.34;5036086;28;20142;-78
2023/03/15 05:37:31;;;;;;;5.28;3.55;;;;;;;5.11;44.19;101077.84;5025915;28;20048;-79
2023/03/15 05:40:21;;;;;;;4.80;3.60;;;;;;;5.08;44.13;101083.44;5022393;28;20073;-79
2023/03/15 05:43:01;;;;;;;4.63;3.70;;;;;;;5.07;44.15;101085.28;5027008;28;20308;-79
2023/03/15 05:45:49;;;;;;;4.70;3.50;;;;;;;5.06;44.05;101090.81;5030613;28;20056;-79
2023/03/15 05:48:36;;;;;;;5.50;4.13;;;;;;;5.02;44.06;101101.00;5021840;28;20042;-79
2023/03/15 05:51:32;;;;;;;5.60;4.07;;;;;;;5.00;44.04;101096.59;5022060;28;20049;-79
2023/03/15 05:54:17;;;;;;;5.38;4.18;;;;;;;4.98;44.16;101107.53;5025491;28;20128;-80
2023/03/15 05:56:45;;;;;;;5.95;3.67;;;;;;;4.96;44.00;101108.63;5028763;28;20165;-79
2023/03/15 05:59:31;;;;;;;6.43;4.07;;;;;;;4.96;44.14;101114.06;5030270;28;20065;-78
2023/03/15 06:02:15;;;;;;;4.85;3.60;;;;;;;4.95;44.59;101115.88;5029243;28;20115;-80
2023/03/15 06:04:58;;;;;;;5.55;4.10;;;;;;;4.95;44.36;101125.88;5030014;28;20049;-80
2023/03/15 06:07:27;;;;;;;5.90;3.90;;;;;;;4.95;44.40;101126.75;5031149;28;20120;-79
2023/03/15 06:09:55;;;;;;;5.60;3.80;;;;;;;4.96;44.68;101133.03;5028835;28;20501;-78
2023/03/15 06:12:23;;;;;;;5.20;3.67;;;;;;;4.96;44.49;101128.50;5023637;28;20104;-79
2023/03/15 06:14:51;;;;;;;6.00;4.05;;;;;;;4.95;44.51;101129.44;5026892;28;20045;-79
2023/03/15 06:17:20;;;;;;;5.47;3.90;;;;;;;4.98;44.72;101133.78;5046913;28;20555;-79
2023/03/15 06:19:48;;;;;;;5.60;3.97;;;;;;;4.96;44.51;101138.47;5034039;28;20078;-79
2023/03/15 06:22:19;;;;;;;5.78;3.80;;;;;;;4.97;44.67;101137.47;5028602;28;20410;-79
2023/03/15 06:24:53;;;;;;;6.88;4.13;;;;;;;4.96;44.77;101150.19;5046134;28;20072;-80
2023/03/15 06:27:23;;;;;;;6.78;4.35;;;;;;;4.96;44.87;101146.59;5035338;28;20125;-80
2023/03/15 06:29:53;;;;;;;5.68;4.22;;;;;;;4.96;44.96;101152.91;5029668;28;20457;-80
2023/03/15 06:32:23;;;;;;;6.07;4.35;;;;;;;4.99;45.05;101149.97;5037735;28;20044;-80
2023/03/15 06:34:52;;;;;;;5.93;4.60;;;;;;;4.98;44.76;101156.38;5038227;28;20049;-80
2023/03/15 06:37:20;;;;;;;5.75;4.00;;;;;;;4.99;44.64;101166.25;5032209;28;20041;-80
2023/03/15 06:40:03;;;;;;;5.53;3.97;;;;;;;4.98;44.82;101163.63;5030580;28;20046;-79
2023/03/15 06:42:30;;;;;;;5.30;3.85;;;;;;;4.99;44.63;101159.97;5034955;28;20095;-79
2023/03/15 06:44:58;;;;;;;8.38;4.65;;;;;;;4.97;44.61;101165.47;5027215;28;20302;-80
2023/03/15 06:47:28;;;;;;;6.32;4.43;;;;;;;5.01;44.71;101174.31;5037583;28;20048;-79
2023/03/15 06:49:56;;;;;;;5.72;4.20;;;;;;;4.99;44.77;101185.25;5034435;28;20080;-79
2023/03/15 06:52:24;;;;;;;6.40;4.45;;;;;;;5.01;44.65;101191.47;5033148;28;20049;-81
2023/03/15 06:54:52;;;;;;;5.78;4.30;;;;;;;5.01;44.73;101198.72;5028553;28;20042;-80
2023/03/15 06:57:20;;;;;;;6.70;3.95;;;;;;;5.02;44.89;101211.31;5023988;28;20398;-79
2023/03/15 06:59:48;;;;;;;6.20;4.18;;;;;;;5.03;44.87;101213.06;5031119;28;20492;-79
2023/03/15 07:02:17;;;;;;;5.43;4.18;;;;;;;5.03;44.87;101210.38;5037835;28;20428;-79
2023/03/15 07:04:47;;;;;;;6.30;4.20;;;;;;;5.05;45.24;101214.72;5039499;28;20072;-80
2023/03/15 07:07:15;;;;;;;6.38;4.32;;;;;;;5.04;44.99;101221.13;5034202;28;20053;-81
2023/03/15 07:09:43;;;;;;;5.93;3.95;;;;;;;5.05;45.02;101224.69;5035228;28;20029;-79
2023/03/15 07:12:12;;;;;;;6.72;4.72;;;;;;;5.04;44.96;101237.41;5044167;28;20103;-80
2023/03/15 07:14:39;;;;;;;7.15;4.70;;;;;;;5.05;45.11;101231.00;5031076;28;20778;-80
2023/03/15 07:17:08;;;;;;;6.53;4.55;;;;;;;5.06;45.10;101237.28;5056048;22;20056;-80
2023/03/15 07:19:37;;;;;;;7.43;4.82;;;;;;;5.06;44.93;101245.44;5011257;28;20072;-78
2023/03/15 07:22:22;;;;;;;7.45;4.75;;;;;;;5.05;45.24;101252.69;5012651;28;20100;-80
2023/03/15 07:24:50;;;;;;;6.47;4.60;;;;;;;5.06;45.10;101253.56;5007915;28;20077;-79
2023/03/15 07:27:19;;;;;;;7.60;5.13;;;;;;;5.06;45.28;101261.72;5014223;28;20467;-80
2023/03/15 07:29:47;;;;;;;7.32;4.53;;;;;;;5.05;45.29;101266.25;5035469;28;20057;-80
2023/03/15 07:32:15;;;;;;;7.07;4.70;;;;;;;5.07;45.10;101272.47;5030570;28;20041;-80
2023/03/15 07:34:43;;;;;;;6.15;4.45;;;;;;;5.05;45.28;101263.53;5026182;28;20037;-80
2023/03/15 07:37:11;;;;;;;8.10;5.03;;;;;;;5.06;45.32;101265.28;5028205;28;20104;-80
2023/03/15 07:39:41;;;;;;;6.90;5.00;;;;;;;5.09;45.32;101272.38;5030128;28;20033;-80
2023/03/15 07:42:09;;;;;;;7.47;5.10;;;;;;;5.08;45.41;101278.78;5034013;28;20115;-80
2023/03/15 07:44:40;;;;;;;8.30;5.05;;;;;;;5.08;45.28;101273.34;5033921;28;20037;-80
2023/03/15 07:47:09;;;;;;;7.47;4.78;;;;;;;5.08;45.41;101279.66;5032785;28;20045;-80
2023/03/15 07:49:37;;;;;;;6.18;4.20;;;;;;;5.09;45.87;101291.38;5039828;28;20052;-79
2023/03/15 07:52:05;;;;;;;8.38;4.68;;;;;;;5.10;45.43;101294.00;5035054;28;20473;-79
2023/03/15 07:54:34;;;;;;;6.50;4.35;;;;;;;5.11;45.50;101300.31;5038970;28;20045;-79
2023/03/15 07:57:04;;;;;;;6.65;3.92;;;;;;;5.12;45.61;101307.50;5039774;28;20060;-79
2023/03/15 07:59:32;;;;;;;6.78;3.60;;;;;;;5.11;45.58;101311.16;5033505;28;20038;-79
2023/03/15 08:02:00;;;;;;;7.97;4.18;;;;;;;5.13;45.16;101303.81;5035728;28;20523;-79
2023/03/15 08:04:30;;;;;;;6.45;3.92;;;;;;;5.13;45.47;101312.81;5035109;28;20108;-80
2023/03/15 08:06:57;;;;;;;6.00;3.58;;;;;;;5.15;45.62;101320.88;5033967;28;20057;-80
2023/03/15 08:09:25;;;;;;;5.63;3.72;;;;;;;5.16;45.66;101320.78;5031009;28;20038;-80
2023/03/15 08:11:53;;;;;;;6.00;3.92;;;;;;;5.17;45.84;101324.38;5032310;28;20060;-79
2023/03/15 08:14:23;;;;;;;6.47;4.05;;;;;;;5.20;45.92;101329.66;5030596;28;20046;-79
2023/03/15 08:16:51;;;;;;;6.68;3.63;;;;;;;5.18;45.85;101329.75;5031831;28;20132;-79
2023/03/15 08:19:20;;;;;;;8.20;4.05;;;;;;;5.20;45.85;101341.41;5030253;28;20075;-79
2023/03/15 08:21:48;;;;;;;6.00;4.00;;;;;;;5.22;45.75;101346.72;5031097;28;20516;-79
2023/03/15 08:24:16;;;;;;;6.97;3.85;;;;;;;5.25;45.84;101351.97;5045083;28;20060;-79
2023/03/15 08:26:44;;;;;;;6.38;3.50;;;;;;;5.26;45.83;101346.47;5042363;28;20112;-80
2023/03/15 08:29:12;;;;;;;6.50;3.15;;;;;;;5.29;45.93;101357.13;5024608;28;20046;-80
2023/03/15 08:31:41;;;;;;;5.20;3.10;;;;;;;5.32;45.88;101353.38;5031278;28;20124;-80
2023/03/15 08:34:10;;;;;;;5.13;2.53;;;;;;;5.36;45.81;101362.22;5039863;28;20058;-79
2023/03/15 08:36:38;;;;;;;5.70;2.92;;;;;;;5.39;45.76;101368.31;5026565;28;20050;-79
2023/03/15 08:39:07;;;;;;;6.40;2.92;;;;;;;5.44;45.77;101368.06;5032862;28;20037;-79
2023/03/15 08:41:35;;;;;;;5.57;2.83;;;;;;;5.48;46.07;101375.06;5031104;28;20651;-79
2023/03/15 08:44:03;;;;;;;4.95;2.90;;;;;;;5.54;46.21;101370.16;5030323;28;20038;-79
2023/03/15 08:46:32;;;;;;;5.57;3.35;;;;;;;5.61;46.22;101368.84;5030070;28;20140;-79
2023/03/15 08:49:02;;;;;;;7.60;3.55;;;;;;;5.71;46.37;101384.59;5028035;28;20046;-79
2023/03/15 08:51:30;;;;;;;6.03;2.92;;;;;;;5.80;46.31;101384.91;5029532;28;20531;-79
2023/03/15 08:53:58;;;;;;;5.63;3.15;;;;;;;5.89;46.43;101394.34;5026362;28;20057;-78
2023/03/15 08:56:26;;;;;;;6.03;3.33;;;;;;;5.98;46.01;101401.97;5023852;28;20096;-79
2023/03/15 08:58:54;;;;;;;6.20;3.72;;;;;;;6.04;45.89;101398.88;5028574;28;20050;-79
2023/03/15 09:01:22;;;;;;;5.10;3.08;;;;;;;6.12;45.46;101412.88;5031398;28;20050;-79
2023/03/15 09:03:50;;;;;;;5.20;3.08;;;;;;;6.18;44.94;101400.75;5028509;28;20044;-79
2023/03/15 09:06:22;;;;;;;7.05;3.22;;;;;;;6.22;45.04;101400.47;5026320;28;20088;-79
2023/03/15 09:08:49;;;;;;;6.68;3.65;;;;;;;6.24;44.64;101405.81;5022085;28;20468;-79
2023/03/15 09:11:17;;;;;;;6.45;3.53;;;;;;;6.27;44.92;101408.38;5005411;28;20056;-79
2023/03/15 09:13:45;;;;;;;5.93;3.42;;;;;;;6.30;44.84;101395.44;5036292;28;20558;-79
2023/03/15 09:16:13;;;;;;;5.38;2.90;;;;;;;6.35;45.20;101403.34;5027139;28;20053;-79
2023/03/15 09:18:42;;;;;;;5.93;3.60;;;;;;;6.41;45.27;101400.22;5037787;28;20049;-79
2023/03/15 09:21:10;;;;;;;6.65;4.00;;;;;;;6.47;44.99;101399.84;5029752;28;20116;-79
2023/03/15 09:23:40;;;;;;;5.85;3.30;;;;;;;6.55;45.22;101407.53;5030680;28;20044;-79
2023/03/15 09:26:07;;;;;;;7.40;3.67;;;;;;;6.58;44.95;101405.50;5030791;28;20041;-78
2023/03/15 09:28:35;;;;;;;5.40;3.17;;;;;;;6.62;44.68;101412.47;5036751;28;20072;-78
2023/03/15 09:31:06;;;;;;;5.55;3.30;;;;;;;6.66;44.43;101415.91;5019934;28;20080;-79
2023/03/15 09:33:34;;;;;;;5.65;3.33;;;;;;;6.68;44.28;101416.69;5031431;28;20029;-79
2023/03/15 09:36:02;;;;;;;5.90;2.83;;;;;;;6.70;44.05;101425.59;5026151;28;20045;-79
2023/03/15 09:38:30;;;;;;;5.25;2.78;;;;;;;6.70;43.87;101428.31;5029663;28;20041;-79
2023/03/15 09:41:00;;;;;;;5.53;2.60;;;;;;;6.72;43.52;101432.72;5022365;28;20084;-79
2023/03/15 09:43:57;;;;;;;6.47;3.00;;;;;;;6.73;42.86;101437.19;5029904;28;20575;-79
2023/03/15 09:46:32;;;;;;;5.40;2.60;;;;;;;6.76;43.48;101438.88;5027516;28;20578;-80
2023/03/15 09:49:09;;;;;;;5.60;3.05;;;;;;;6.82;43.25;101433.91;5026351;28;20415;-80
2023/03/15 09:51:42;;;;;;;4.88;2.83;;;;;;;6.87;43.62;101440.91;5024191;28;20044;-79
2023/03/15 09:54:15;;;;;;;5.82;2.95;;;;;;;6.94;43.94;101429.53;5034680;28;20061;-79
2023/03/15 09:56:53;;;;;;;4.88;2.60;;;;;;;7.03;43.54;101439.84;5025602;28;20709;-79
2023/03/15 09:59:26;;;;;;;7.55;2.83;;;;;;;7.10;44.13;101422.16;5026991;28;20049;-79
2023/03/15 10:01:56;;;;;;;;;;;;;;;6.93;44.09;101427.81;5029846;28;20057;-80
2023/03/15 10:04:28;;;;;;;4.85;2.45;;;;;;;7.24;43.58;101423.13;5030513;28;19982;-80
2023/03/15 10:06:59;;;;;;;5.25;2.72;;;;;;;7.31;43.81;101425.34;5028755;28;20100;-80
2023/03/15 10:09:31;;;;;;;4.72;2.67;;;;;;;7.42;43.47;101424.66;5028957;28;20116;-80
2023/03/15 10:12:04;;;;;;;5.68;2.35;;;;;;;7.46;42.42;101429.78;5031730;28;20061;-79
2023/03/15 10:14:38;;;;;;;;;;;;;;;7.26;43.06;101426.63;5030550;28;20049;-79
2023/03/15 10:17:11;;;;;;;3.55;1.90;;;;;;;7.52;42.91;101423.03;5030759;28;20399;-79
2023/03/15 10:19:48;;;;;;;4.28;2.35;;;;;;;7.61;42.29;101425.16;5045034;28;20489;-79
2023/03/15 10:22:25;;;;;;;6.25;2.35;;;;;;;7.68;42.24;101425.66;5030799;28;20081;-79
2023/03/15 10:24:59;;;;;;;6.43;2.20;;;;;;;7.71;42.50;101429.03;5031070;28;20457;-79
2023/03/15 10:27:34;;;;;;;4.35;2.65;;;;;;;7.77;42.26;101439.50;5025412;28;20064;-79
2023/03/15 10:30:15;;;;;;;4.90;2.30;;;;;;;7.83;41.52;101446.44;5029682;28;20067;-79
2023/03/15 10:32:45;;;;;;;4.03;2.35;;;;;;;7.85;42.36;101439.00;5025569;28;20140;-79
2023/03/15 10:35:15;;;;;;;3.72;2.28;;;;;;;7.88;42.06;101438.81;5025265;28;20132;-79
2023/03/15 10:37:43;;;;;;;5.00;2.40;;;;;;;7.89;42.25;101441.44;5029684;28;20060;-80
2023/03/15 10:40:15;;;;;;;5.10;2.20;;;;;;;7.94;41.87;101446.56;5027212;28;20045;-80
2023/03/15 10:42:45;;;;;;;4.82;1.80;;;;;;;7.97;42.02;101438.19;5029146;28;20095;-80
2023/03/15 10:45:20;;;;;;;4.65;2.08;;;;;;;8.02;40.96;101441.47;5023234;28;20524;-79
2023/03/15 10:47:49;;;;;;;3.92;1.30;;;;;;;8.06;42.08;101443.03;5023774;28;20057;-80
2023/03/15 10:50:29;;;;;;;4.88;1.80;;;;;;;8.13;41.73;101446.19;5026804;28;20053;-79
2023/03/15 10:52:59;;;;;;;4.10;1.90;;;;;;;8.19;41.70;101445.81;5030772;28;20037;-79
2023/03/15 10:55:32;;;;;;;4.35;1.60;;;;;;;8.26;40.61;101445.28;5025542;28;20045;-80
2023/03/15 10:58:19;;;;;;;4.03;1.67;;;;;;;8.31;39.72;101443.13;5029500;28;20057;-80
2023/03/15 11:00:51;;;;;;;4.55;2.25;;;;;;;8.36;40.54;101444.66;5026669;28;20128;-80
2023/03/15 11:03:21;;;;;;;3.55;1.75;;;;;;;8.39;40.67;101452.63;5038641;28;20543;-80
2023/03/15 11:05:51;;;;;;;4.43;1.77;;;;;;;8.43;40.38;101456.88;5025557;28;20064;-79
2023/03/15 11:08:21;;;;;;;5.65;2.13;;;;;;;8.45;40.47;101457.66;5026002;28;20044;-80
2023/03/15 11:10:56;;;;;;;4.28;1.70;;;;;;;8.48;39.14;101454.72;5025112;28;20112;-80
2023/03/15 11:13:28;;;;;;;3.85;1.83;;;;;;;8.46;39.33;101457.56;5027374;28;20046;-80
2023/03/15 11:16:03;;;;;;;4.70;2.20;;;;;;;8.47;38.91;101455.69;5027554;28;20124;-80
2023/03/15 11:18:37;;;;;;;4.43;1.95;;;;;;;8.47;38.57;101459.31;5028877;28;20057;-80
2023/03/15 11:21:10;;;;;;;4.47;2.38;;;;;;;8.47;39.18;101459.31;5027367;28;20394;-80
2023/03/15 11:23:41;;;;;;;6.07;2.03;;;;;;;8.47;39.51;101463.88;5029322;28;20052;-81
2023/03/15 11:26:16;;;;;;;4.78;1.80;;;;;;;8.50;39.06;101464.56;5024975;28;20053;-80
2023/03/15 11:29:01;;;;;;;4.72;1.70;;;;;;;8.51;39.35;101476.31;5028203;28;20676;-81
2023/03/15 11:31:31;;;;;;;4.90;1.70;;;;;;;8.51;38.61;101479.03;5027358;28;20052;-81
2023/03/15 11:34:04;;;;;;;3.00;1.67;;;;;;;8.51;38.52;101481.78;5026869;28;20064;-80
2023/03/15 11:36:39;;;;;;;3.38;1.60;;;;;;;8.49;38.12;101481.91;5024354;28;20076;-81
2023/03/15 11:39:13;;;;;;;3.78;1.80;;;;;;;8.47;38.00;101481.13;5027043;28;20061;-80
2023/03/15 11:41:47;;;;;;;4.60;1.60;;;;;;;8.43;38.22;101479.56;5037061;28;20527;-80
2023/03/15 11:44:26;;;;;;;4.35;1.55;;;;;;;8.44;37.67;101485.91;5037279;28;20053;-80
2023/03/15 11:46:59;;;;;;;4.63;1.60;;;;;;;8.39;38.51;101486.22;5028579;28;20060;-81
2023/03/15 11:49:36;;;;;;;5.47;1.67;;;;;;;8.36;37.49;101491.00;5034108;28;20540;-79
2023/03/15 11:52:05;;;;;;;3.70;1.20;;;;;;;8.33;38.49;101498.44;5049254;28;20300;-80
2023/03/15 11:54:33;;;;;;;3.30;1.48;;;;;;;8.31;38.78;101499.53;5036297;28;20072;-81
2023/03/15 11:57:05;;;;;;;3.13;1.40;;;;;;;8.31;38.23;101496.78;5037080;28;20057;-79
2023/03/15 11:59:36;;;;;;;3.17;1.40;;;;;;;8.32;38.51;101495.81;5035079;28;20042;-81